Date,TemperatureHighF,TemperatureAvgF,TemperatureLowF,DewpointHighF,DewpointAvgF,DewpointLowF,HumidityHigh,HumidityAvg,HumidityLow,PressureMaxIn,PressureMinIn,WindSpeedMaxMPH,WindSpeedAvgMPH,GustSpeedMaxMPH,PrecipitationSumIn
2013-5-1,67.5,48.2,30.6,44.6,36.5,26.4,85,67,42,30.43,30.32,7,1,11,0.00
2013-5-2,76.0,56.3,36.9,47.1,40.6,32.9,85,60,29,30.36,30.15,6,1,12,0.00
2013-5-3,77.6,58.0,39.8,50.0,44.1,35.4,85,63,37,30.23,30.02,7,1,13,0.00
2013-5-4,80.7,61.9,41.6,51.6,39.3,29.9,86,52,16,30.05,29.79,10,2,24,0.00
2013-5-5,85.5,65.8,43.1,47.0,41.1,37.3,81,47,20,29.79,29.58,11,2,25,0.00
2013-5-6,77.1,62.4,46.5,55.3,48.2,41.3,82,62,43,29.87,29.71,6,1,10,0.00
2013-5-7,75.1,60.1,45.2,54.6,48.4,40.7,85,67,46,29.99,29.85,6,1,12,0.00
2013-5-8,70.8,56.0,45.0,54.8,47.8,40.2,87,75,55,30.09,29.98,4,0,9,0.00
2013-5-9,80.3,60.3,45.6,59.2,50.6,41.6,91,73,43,30.14,30.00,3,0,10,0.00
2013-5-10,79.4,64.6,48.8,60.2,53.6,45.1,88,69,48,30.14,30.04,3,0,8,0.00
2013-5-11,82.8,67.6,55.3,62.4,55.9,50.7,86,68,38,30.14,29.95,3,0,10,0.00
2013-5-12,75.8,63.6,54.0,61.3,54.2,49.9,88,73,49,30.08,30.01,7,1,14,0.00
2013-5-13,67.7,59.4,51.9,55.3,51.2,45.7,90,75,53,30.16,30.01,7,1,20,0.02
2013-5-14,68.6,56.1,47.0,47.7,43.6,38.2,87,66,37,30.16,30.02,4,0,12,0.00
2013-5-15,61.2,51.4,44.1,52.6,45.5,38.7,87,80,66,30.07,29.96,2,0,8,0.14
2013-5-16,57.8,53.3,50.3,51.3,49.4,47.4,91,87,74,29.97,29.91,3,0,13,0.08
2013-5-17,61.6,54.1,47.4,50.1,47.2,44.9,92,78,58,30.06,29.96,4,0,11,0.00
2013-5-18,56.7,52.8,49.5,51.2,48.3,46.1,89,85,76,30.24,30.06,3,0,9,0.02
2013-5-19,65.4,54.6,46.3,52.5,47.9,41.6,93,80,45,30.35,30.25,6,0,9,0.06
2013-5-20,74.4,55.0,38.4,54.1,45.1,34.8,89,72,44,30.28,29.87,3,0,9,0.00
2013-5-21,53.1,46.7,41.6,47.1,42.5,38.3,89,85,68,30.13,29.79,4,0,16,0.63
2013-5-22,47.6,43.0,38.4,43.6,39.6,34.8,90,88,84,30.12,30.08,6,1,30,0.61
2013-5-23,58.7,49.0,43.8,45.8,42.8,40.3,90,80,57,30.13,30.10,5,1,15,0.33
2013-5-24,62.7,51.5,45.6,48.2,44.9,43.1,92,79,57,30.19,30.10,5,1,14,0.16
2013-5-25,69.7,57.2,47.4,50.8,47.2,44.3,89,71,44,30.17,30.00,4,1,13,0.12
2013-5-26,64.1,55.7,49.9,54.1,49.8,45.9,92,81,62,30.13,30.04,6,1,17,0.39
2013-5-27,63.8,53.9,48.6,57.8,50.1,45.0,93,87,74,30.08,29.85,8,1,18,0.57
2013-5-28,65.6,55.9,49.2,52.4,49.1,45.5,92,79,55,30.04,29.83,7,1,18,0.08
2013-5-29,62.5,54.2,49.7,54.0,49.1,45.4,92,83,66,30.17,29.77,6,1,15,0.26
2013-5-30,62.7,54.1,47.6,48.2,45.7,42.2,90,74,54,30.34,30.16,4,1,12,0.00
2013-5-31,70.2,57.0,45.6,51.5,47.4,42.2,89,72,50,30.39,30.28,5,1,15,0.00